createdAt,value
2023-03-01T00:01:06.289Z,24.95
2023-03-01T00:03:33.790Z,26.65
2023-03-01T00:06:01.477Z,24.90
2023-03-01T00:08:28.833Z,25.20
2023-03-01T00:11:18.043Z,27.60
2023-03-01T00:13:46.088Z,29.02
2023-03-01T00:16:17.424Z,29.42
2023-03-01T00:18:44.646Z,25.65
2023-03-01T00:21:17.485Z,24.77
2023-03-01T00:23:44.766Z,26.55
2023-03-01T00:26:14.789Z,27.40
2023-03-01T00:28:42.532Z,28.75
2023-03-01T00:31:30.454Z,24.17
2023-03-01T00:33:59.395Z,26.95
2023-03-01T00:36:29.355Z,27.25
2023-03-01T00:38:57.335Z,31.80
2023-03-01T00:41:24.636Z,27.13
2023-03-01T00:43:51.614Z,27.85
2023-03-01T00:46:23.395Z,28.70
2023-03-01T00:48:50.751Z,30.02
2023-03-01T00:51:23.650Z,29.98
2023-03-01T00:53:59.824Z,31.10
2023-03-01T00:56:27.773Z,30.52
2023-03-01T00:58:54.600Z,28.48
2023-03-01T01:01:25.232Z,30.58
2023-03-01T01:03:55.488Z,31.85
2023-03-01T01:06:23.948Z,30.65
2023-03-01T01:08:51.837Z,34.72
2023-03-01T01:11:19.561Z,31.70
2023-03-01T01:13:48.176Z,32.75
2023-03-01T01:16:16.560Z,32.80
2023-03-01T01:18:43.651Z,33.28
2023-03-01T01:21:13.536Z,33.40
2023-03-01T01:23:41.787Z,30.20
2023-03-01T01:26:14.547Z,29.27
2023-03-01T01:28:41.647Z,36.97
2023-03-01T01:31:08.883Z,28.90
2023-03-01T01:33:36.253Z,35.80
2023-03-01T01:36:03.208Z,35.00
2023-03-01T01:38:30.061Z,31.73
2023-03-01T01:40:57.002Z,38.08
2023-03-01T01:43:38.115Z,36.63
2023-03-01T01:46:07.531Z,36.50
2023-03-01T01:48:44.849Z,38.85
2023-03-01T01:51:20.264Z,32.13
2023-03-01T01:53:52.228Z,38.45
2023-03-01T01:56:21.161Z,41.80
2023-03-01T01:58:48.968Z,36.30
2023-03-01T02:01:15.851Z,36.78
2023-03-01T02:03:46.949Z,40.33
2023-03-01T02:06:30.988Z,31.30
2023-03-01T02:09:06.089Z,42.15
2023-03-01T02:11:35.116Z,44.20
2023-03-01T02:14:01.940Z,37.65
2023-03-01T02:16:30.545Z,40.75
2023-03-01T02:18:58.279Z,48.42
2023-03-01T02:21:46.706Z,48.38
2023-03-01T02:24:35.129Z,45.35
2023-03-01T02:27:02.449Z,50.28
2023-03-01T02:29:29.985Z,46.45
2023-03-01T02:32:00.897Z,43.83
2023-03-01T02:34:30.218Z,46.28
2023-03-01T02:37:13.741Z,44.63
2023-03-01T02:39:44.722Z,41.90
2023-03-01T02:42:19.917Z,41.95
2023-03-01T02:44:46.867Z,41.00
2023-03-01T02:47:13.647Z,45.17
2023-03-01T02:49:40.420Z,40.90
2023-03-01T02:52:37.044Z,37.95
2023-03-01T02:55:10.228Z,49.45
2023-03-01T02:57:40.425Z,42.50
2023-03-01T03:00:12.258Z,40.30
2023-03-01T03:02:39.135Z,44.88
2023-03-01T03:05:14.740Z,37.75
2023-03-01T03:07:44.071Z,39.88
2023-03-01T03:10:17.011Z,37.83
2023-03-01T03:12:43.866Z,37.85
2023-03-01T03:15:13.848Z,45.08
2023-03-01T03:17:44.574Z,42.65
2023-03-01T03:20:14.079Z,42.65
2023-03-01T03:22:41.198Z,43.33
2023-03-01T03:25:12.008Z,40.63
2023-03-01T03:27:45.191Z,49.65
2023-03-01T03:30:16.058Z,41.97
2023-03-01T03:32:53.330Z,46.83
2023-03-01T03:35:31.308Z,42.05
2023-03-01T03:38:02.942Z,42.00
2023-03-01T03:40:30.925Z,40.60
2023-03-01T03:42:57.763Z,43.90
2023-03-01T03:45:24.576Z,46.35
2023-03-01T03:47:51.330Z,44.03
2023-03-01T03:50:19.211Z,42.13
2023-03-01T03:52:46.308Z,41.85
2023-03-01T03:55:13.908Z,42.95
2023-03-01T03:57:42.436Z,43.40
2023-03-01T04:00:13.987Z,47.45
2023-03-01T04:05:10.369Z,45.65
2023-03-01T04:07:38.939Z,47.03
2023-03-01T04:10:07.972Z,44.80
2023-03-01T04:12:35.974Z,48.40
2023-03-01T04:15:13.731Z,49.83
2023-03-01T04:17:45.358Z,48.35
2023-03-01T04:23:00.298Z,48.00
2023-03-01T04:25:27.670Z,45.65
2023-03-01T04:27:54.432Z,51.42
2023-03-01T04:30:21.528Z,46.10
2023-03-01T04:32:48.268Z,47.13
2023-03-01T04:35:16.113Z,52.17
2023-03-01T04:37:42.873Z,46.92
2023-03-01T04:40:17.424Z,49.20
2023-03-01T04:42:44.513Z,49.67
2023-03-01T04:45:14.309Z,51.80
2023-03-01T04:47:43.850Z,53.17
2023-03-01T04:50:12.946Z,53.92
2023-03-01T04:52:39.685Z,59.03
2023-03-01T04:55:07.354Z,49.85
2023-03-01T04:57:34.584Z,56.88
2023-03-01T05:00:01.417Z,65.95
2023-03-01T05:02:28.224Z,71.57
2023-03-01T05:04:58.686Z,75.32
2023-03-01T05:07:26.013Z,78.35
2023-03-01T05:09:55.021Z,59.80
2023-03-01T05:12:21.891Z,59.28
2023-03-01T05:14:48.661Z,55.35
2023-03-01T05:17:15.484Z,63.67
2023-03-01T05:19:43.794Z,59.33
2023-03-01T05:22:10.588Z,62.85
2023-03-01T05:24:39.722Z,61.22
2023-03-01T05:27:07.368Z,64.38
2023-03-01T05:29:36.053Z,66.53
2023-03-01T05:32:03.849Z,62.88
2023-03-01T05:34:33.650Z,63.63
2023-03-01T05:37:01.115Z,61.20
2023-03-01T05:39:29.723Z,66.60
2023-03-01T05:41:59.426Z,62.22
2023-03-01T05:44:27.396Z,63.42
2023-03-01T05:46:54.881Z,73.22
2023-03-01T05:49:25.082Z,69.53
2023-03-01T05:51:53.977Z,69.80
2023-03-01T05:54:22.697Z,75.25
2023-03-01T05:56:49.753Z,76.07
2023-03-01T05:59:17.496Z,74.75
2023-03-01T06:01:44.849Z,68.75
2023-03-01T06:04:11.816Z,64.10
2023-03-01T06:06:38.920Z,69.40
2023-03-01T06:09:08.435Z,69.82
2023-03-01T06:11:36.223Z,61.67
2023-03-01T06:14:03.912Z,73.78
2023-03-01T06:16:30.932Z,66.78
2023-03-01T06:18:57.882Z,77.43
2023-03-01T06:21:24.609Z,70.63
2023-03-01T06:23:51.681Z,72.28
2023-03-01T06:26:18.838Z,69.80
2023-03-01T06:28:47.260Z,76.40
2023-03-01T06:31:14.399Z,76.68
2023-03-01T06:33:41.445Z,71.78
2023-03-01T06:36:09.218Z,74.35
2023-03-01T06:38:36.001Z,72.82
2023-03-01T06:41:03.065Z,65.60
2023-03-01T06:43:29.923Z,72.63
2023-03-01T06:45:56.851Z,75.55
2023-03-01T06:48:23.691Z,76.35
2023-03-01T06:50:50.525Z,62.83
2023-03-01T06:53:17.386Z,75.53
2023-03-01T06:55:44.169Z,70.65
2023-03-01T06:58:12.095Z,75.45
2023-03-01T07:00:41.197Z,75.65
2023-03-01T17:05:52.518Z,47.70
2023-03-01T17:08:19.948Z,55.97
2023-03-01T17:10:47.275Z,53.72
2023-03-01T17:13:14.433Z,47.45
2023-03-01T17:15:43.012Z,50.05
2023-03-01T17:18:10.543Z,48.90
2023-03-01T17:20:38.106Z,51.75
2023-03-01T17:23:06.179Z,48.13
2023-03-01T17:25:33.892Z,43.13
2023-03-01T17:28:00.980Z,42.60
2023-03-01T17:30:28.184Z,37.95
2023-03-01T17:32:56.677Z,42.58
2023-03-01T17:35:24.491Z,40.20
2023-03-01T17:37:56.964Z,45.72
2023-03-01T17:40:24.867Z,48.78
2023-03-01T17:42:53.414Z,59.90
2023-03-01T17:45:20.751Z,62.75
2023-03-01T17:47:47.816Z,63.40
2023-03-01T17:50:15.113Z,54.00
2023-03-01T17:52:41.892Z,56.72
2023-03-01T17:55:09.682Z,54.67
2023-03-01T17:57:43.638Z,68.10
2023-03-01T18:00:13.930Z,67.57
2023-03-01T18:02:41.419Z,79.93
2023-03-01T18:05:09.173Z,92.28
2023-03-01T18:07:36.230Z,100.82
2023-03-01T18:10:04.749Z,83.90
2023-03-01T18:12:34.397Z,70.85
2023-03-01T18:15:01.450Z,67.00
2023-03-01T18:17:28.741Z,64.40
2023-03-01T18:19:57.216Z,64.18
2023-03-01T18:22:24.355Z,64.70
2023-03-01T18:24:51.538Z,60.00
2023-03-01T18:27:19.005Z,59.50
2023-03-01T18:29:46.344Z,53.17
2023-03-01T18:32:14.966Z,60.97
2023-03-01T18:34:42.672Z,60.60
2023-03-01T18:37:10.310Z,51.45
2023-03-01T18:39:38.871Z,57.75
2023-03-01T18:42:06.768Z,57.13
2023-03-01T18:44:35.980Z,59.38
2023-03-01T18:47:03.952Z,51.00
2023-03-01T18:49:31.627Z,48.33
2023-03-01T18:51:59.425Z,50.50
2023-03-01T18:54:27.279Z,56.78
2023-03-01T18:56:55.037Z,52.08
2023-03-01T18:59:22.344Z,80.82
2023-03-01T19:01:50.013Z,77.78
2023-03-01T19:04:17.740Z,58.33
2023-03-01T19:06:46.998Z,91.22
2023-03-01T19:09:15.606Z,94.88
2023-03-01T19:11:43.977Z,70.60
2023-03-01T19:14:11.547Z,58.22
2023-03-01T19:16:40.757Z,61.42
2023-03-01T19:19:10.691Z,76.55
2023-03-01T19:21:38.218Z,65.50
2023-03-01T19:24:05.671Z,80.45
2023-03-01T19:26:34.142Z,89.72
2023-03-01T19:29:03.632Z,120.07
2023-03-01T19:31:35.974Z,100.38
2023-03-01T19:34:12.375Z,105.75
2023-03-01T19:36:44.245Z,79.63
2023-03-01T19:39:14.404Z,58.47
2023-03-01T19:41:43.988Z,59.38
2023-03-01T19:44:13.139Z,58.28
2023-03-01T19:46:41.446Z,50.95
2023-03-01T19:49:09.518Z,92.43
2023-03-01T19:51:39.432Z,123.72
2023-03-01T19:54:08.493Z,116.18
2023-03-01T19:56:36.283Z,120.03
2023-03-01T19:59:04.947Z,93.32
2023-03-01T20:01:33.227Z,68.05
2023-03-01T20:04:04.634Z,47.70
2023-03-01T20:06:34.281Z,55.22
2023-03-01T20:09:18.986Z,53.53
2023-03-01T20:11:48.667Z,54.35
2023-03-01T20:14:16.548Z,61.38
2023-03-01T20:16:44.397Z,71.57
2023-03-01T20:19:12.055Z,90.82
2023-03-01T20:21:40.868Z,88.97
2023-03-01T20:24:09.117Z,78.05
2023-03-01T20:26:37.509Z,79.32
2023-03-01T20:29:07.675Z,71.60
2023-03-01T20:31:35.251Z,64.30
2023-03-01T20:34:04.684Z,57.83
2023-03-01T20:36:32.511Z,61.47
2023-03-01T20:39:00.007Z,68.00
2023-03-01T20:41:29.809Z,53.28
2023-03-01T20:43:59.133Z,47.67
2023-03-01T20:46:33.318Z,45.13
2023-03-01T20:49:02.021Z,46.58
2023-03-01T20:51:29.478Z,40.75
2023-03-01T20:53:57.067Z,37.80
2023-03-01T20:56:25.048Z,38.20
2023-03-01T20:58:52.437Z,47.28
2023-03-01T21:01:24.937Z,49.13
2023-03-01T21:03:52.687Z,45.55
2023-03-01T21:06:19.897Z,41.05
2023-03-01T21:08:47.240Z,44.40
2023-03-01T21:11:16.542Z,48.97
2023-03-01T21:13:44.605Z,51.25
2023-03-01T21:16:17.509Z,51.58
2023-03-01T21:18:44.689Z,47.75
2023-03-01T21:21:14.505Z,47.50
2023-03-01T21:23:43.064Z,56.80
2023-03-01T21:26:15.602Z,50.25
2023-03-01T21:28:43.603Z,49.97
2023-03-01T21:31:19.433Z,49.03
2023-03-01T21:33:49.506Z,38.40
2023-03-01T21:36:19.047Z,35.42
2023-03-01T21:38:47.566Z,41.78
2023-03-01T21:41:16.801Z,42.63
2023-03-01T21:43:45.117Z,39.35
2023-03-01T21:46:15.459Z,33.72
2023-03-01T21:48:45.163Z,38.67
2023-03-01T21:51:15.088Z,33.20
2023-03-01T21:53:42.346Z,35.05
2023-03-01T21:56:10.461Z,30.45
2023-03-01T21:58:37.292Z,31.52
2023-03-01T22:01:10.310Z,33.13
2023-03-01T22:03:46.710Z,30.90
2023-03-01T22:06:20.203Z,30.25
2023-03-01T22:08:48.476Z,34.50
2023-03-01T22:11:18.132Z,32.35
2023-03-01T22:13:47.708Z,34.33
2023-03-01T22:16:14.512Z,32.72
2023-03-01T22:18:41.415Z,33.58
2023-03-01T22:21:08.734Z,29.92
2023-03-01T22:23:37.301Z,29.27
2023-03-01T22:26:04.588Z,29.48
2023-03-01T22:28:31.644Z,28.98
2023-03-01T22:30:58.690Z,27.95
2023-03-01T22:33:25.542Z,28.55
2023-03-01T22:35:56.287Z,28.65
2023-03-01T22:38:23.485Z,28.60
2023-03-01T22:41:01.536Z,28.33
2023-03-01T22:43:30.194Z,27.98
2023-03-01T22:45:57.346Z,25.33
2023-03-01T22:48:25.290Z,27.48
2023-03-01T22:50:52.228Z,27.35
2023-03-01T22:53:19.375Z,25.60
2023-03-01T22:55:46.202Z,28.60
2023-03-01T22:58:12.950Z,26.42
2023-03-01T23:00:39.740Z,27.35
2023-03-01T23:03:06.644Z,28.05
2023-03-01T23:05:33.578Z,27.67
2023-03-01T23:08:00.322Z,26.08
2023-03-01T23:10:27.153Z,30.98
2023-03-01T23:12:56.986Z,31.63
2023-03-01T23:15:24.156Z,26.33
2023-03-01T23:17:50.980Z,23.08
2023-03-01T23:20:17.981Z,32.85
2023-03-01T23:22:44.717Z,28.35
2023-03-01T23:25:15.091Z,24.77
2023-03-01T23:27:41.974Z,29.52
2023-03-01T23:30:09.460Z,27.75
2023-03-01T23:32:40.745Z,30.52
2023-03-01T23:35:10.929Z,28.55
2023-03-01T23:37:38.360Z,28.50
2023-03-01T23:40:06.819Z,27.38
2023-03-01T23:42:34.423Z,26.27
2023-03-01T23:45:01.163Z,28.30
2023-03-01T23:47:28.011Z,29.30
2023-03-01T23:49:57.294Z,24.00
2023-03-01T23:52:24.544Z,26.35
2023-03-01T23:54:52.103Z,28.90
2023-03-01T23:57:19.997Z,26.13
2023-03-01T23:59:49.788Z,26.08
